Thunder radar more information blitzortung!


Rain radar more information rain snow radar


altri nostri siti meteo:

PomeziameteoStazione ufficiale di Pomezia

MeteopomeziaSito sulle condizioni meteo



Nessuna attenzione particolare richiesta.    Non ci sono allerte meteo

Report METAR

   
LIMP - Parma
Dati ricevuti: 24-02-2018 17:50
Sereno  
Sereno  
   Vento: Sud 9.3 km/h
Vento: Sud 9.3 km/h
Temperatura: 6°C
Temperatura Vento: 4°C
P.to Rugiada: 2°C
Umidita: 76%
Barometro: 1011 hPa
Visibilita: oltre 10 km
dettagli cloud: Sereno
LIMP 241650Z 18005KT CAVOK 06/02 Q1011
LIPE - Bologna
Dati ricevuti: 24-02-2018 18:50
Parzialmente nuvoloso  
Parzialmente nuvoloso  
   Vento: Variabile 1.9 km/h
Vento: Variabile 1.9 km/h
Temperatura: 4°C
P.to Rugiada: 2°C
Umidita: 87%
Barometro: 1011 hPa
Nuvole: Parzialmente nuvoloso
Visibilita: oltre 10 km
dettagli cloud: Poche nuvole 3000 ft,
Parzialmente nuvoloso 8000 ft
LIPE 241750Z VRB01KT 9999 FEW030 SCT080 04/02 Q1011
LIPO - Brescia/Montichi
Dati ricevuti: 24-02-2018 17:50
Parzialmente nuvoloso  
Parzialmente nuvoloso  
   Vento: Sud 9.3 km/h
Vento: Sud 9.3 km/h
Temperatura: 8°C
Temperatura Vento: 7°C
P.to Rugiada: 4°C
Umidita: 76%
Barometro: 1010 hPa
Nuvole: Parzialmente nuvoloso
Visibilita: 8 km
dettagli cloud: Parzialmente nuvoloso
LIPO 241650Z 18005KT 8000 NSC 08/04 Q1010
LIPF - Ferrara
Dati ricevuti: 24-02-2018 17:55
Molto nuvoloso  
Molto nuvoloso  
   Vento: Nord 9.3 km/h
Vento: Nord 9.3 km/h
Temperatura: 8°C
Temperatura Vento: 7°C
P.to Rugiada: 3°C
Umidita: 71%
Barometro: 1010 hPa
Nuvole: Molto nuvoloso
Visibilita: oltre 10 km
dettagli cloud: Molto nuvoloso 8000 ft
LIPF 241655Z 01005KT 9999 BKN080 08/03 Q1010
LIPL - Ghedi
Dati ricevuti: 24-02-2018 17:55
Nebbia, Parzialmente nuvoloso  
Nebbia, Parzialmente nuvoloso  
   Vento: Variabile calma
Vento: Variabile calma
Temperatura: 8°C
P.to Rugiada: 3°C
Umidita: 71%
Barometro: 1010 hPa
Nuvole: Parzialmente nuvoloso
Visibilita: 5 km
dettagli cloud: Parzialmente nuvoloso 6000 ft
LIPL 241655Z /////KT 5000 BR SCT060 08/03 Q1010 RMK BKN SCT100 VIS MIN 5000 WIND THR31 /////KT WHT
LIVC - Monte Cimone
Dati ricevuti: 24-02-2018 17:55
Freezing, Nebbia  
Freezing, Nebbia  
   Vento: NE 31.5 km/h
Vento: NE 31.5 km/h
Temperatura: -5°C
Temperatura Vento: -13°C
P.to Rugiada: -5°C
Umidita: 100%
Barometro: 1006 hPa
Visibilita: 0 km
dettagli cloud: Coperto
LIVC 241655Z 07017KT 0000 FZFG VV/// M05/M05 Q1006 RMK MON INVIS VAL INVIS VIS MIN 0000
LIMS - Piacenza
Dati ricevuti: 24-02-2018 17:55
Poche nuvole  
Poche nuvole  
   Vento: Sud 5.6 km/h
Vento: Sud 5.6 km/h
Temperatura: 7°C
Temperatura Vento: 6°C
P.to Rugiada: 5°C
Umidita: 87%
Barometro: 1009 hPa
Nuvole: Poche nuvole
Visibilita: 8 km
dettagli cloud: Poche nuvole 4000 ft
LIMS 241655Z 17003KT 8000 FEW040 07/05 Q1009
LIMT - Passo della Cisa
Dati ricevuti: 23-02-2018 17:55
DATI Obsoleti
Neve leggera  
Neve leggera  
   Vento: Nord 33.3 km/h
Vento: Nord 33.3 km/h
Temperatura: -4°C
Temperatura Vento: -12°C
P.to Rugiada: -4°C
Umidita: 100%
Barometro: 1002 hPa
Visibilita: 0 km
dettagli cloud: Coperto
LIMT 231655Z 36018KT 0100 -SN VV/// M04/M04 Q1002 RMK MON INVIS VAL INVIS VIS MIN 0100
LIPU - Padova
Dati ricevuti: 24-02-2018 08:00
DATI Obsoleti
Sereno  
Sereno  
   Vento: Variabile 1.9 km/h
Vento: Variabile 1.9 km/h
Temperatura: 5°C
P.to Rugiada: 1°C
Umidita: 76%
Barometro: 1010 hPa
Visibilita: oltre 10 km
dettagli cloud: Sereno
LIPU 240700Z VRB01KT CAVOK 05/01 Q1010

Script sviluppato da  Saratoga-weather.org Adattato per il modello da  Weerstation Leuven

Strumentazione usata:

Stazione meteo
Davis VP2

Programma gestore dati meteo
WVIEW

Server per i dati meteo
Pc-WDS5

Davis VP2

WVIEW

Pc-WDS5